Terminal Aerodrome Forecast
Issued by NWS

Home | Current Version | Previous Version | Text Only | Print | Product List | Glossary On
Versions: 1 2 3 4 5 6 7 8 9 10 11 12 13 14
000
FTUS44 KLZK 040404 AAB
TAFBPK
TAF AMD
KBPK 040404Z 0404/0424 12005KT P6SM VCSH OVC007
      TEMPO 0405/0409 1SM -DZ BR OVC004
     FM040900 06003KT 2SM BR VCSH OVC004
     FM041900 36005KT P6SM BKN008 OVC015=

USA.gov is the U.S. government's official web portal to all federal, state and local government web resources and services.